Time;durP1;ratioP1;P1;durP2;ratioP2;P2;SDS_P1;SDS_P2;PMS_P1;PMS_P2;Temp;Humidity;BMP_temperature;BMP_pressure;BME280_temperature;BME280_humidity;BME280_pressure;Samples;Min_cycle;Max_cycle;Signal;HPM_P1;HPM_P2
2021/01/01 00:01:45;;;;;;;33.38;22.45;;;3.50;99.90;;;;;;5031305;28;20636;-78
2021/01/01 00:04:11;;;;;;;32.55;22.40;;;3.50;99.90;;;;;;5031843;28;20193;-78
2021/01/01 00:06:39;;;;;;;32.80;24.08;;;3.60;99.90;;;;;;5031711;28;20205;-78
2021/01/01 00:09:05;;;;;;;33.00;24.05;;;3.60;99.90;;;;;;5031195;28;20180;-78
2021/01/01 00:11:31;;;;;;;33.53;23.70;;;3.60;99.90;;;;;;5031088;28;20208;-78
2021/01/01 00:13:57;;;;;;;34.80;23.80;;;3.60;99.90;;;;;;5031833;28;20284;-78
2021/01/01 00:16:23;;;;;;;33.70;23.50;;;3.50;99.90;;;;;;5031489;28;20216;-78
2021/01/01 00:18:48;;;;;;;38.95;25.20;;;3.50;99.90;;;;;;5031796;28;20161;-77
2021/01/01 00:21:14;;;;;;;32.93;24.17;;;3.50;99.90;;;;;;5031392;28;20247;-78
2021/01/01 00:23:40;;;;;;;36.17;23.00;;;3.50;99.90;;;;;;5031914;28;20193;-78
2021/01/01 00:26:11;;;;;;;33.80;23.03;;;3.60;99.90;;;;;;5031092;28;20216;-78
2021/01/01 00:28:42;;;;;;;35.35;21.67;;;3.50;99.90;;;;;;5031382;28;20435;-79
2021/01/01 00:31:13;;;;;;;33.85;24.35;;;3.60;99.90;;;;;;5030885;28;20675;-78
2021/01/01 00:33:38;;;;;;;31.05;22.98;;;3.50;99.90;;;;;;5036753;28;20222;-78
2021/01/01 00:36:04;;;;;;;35.40;21.77;;;3.50;99.90;;;;;;5030801;28;20208;-79
2021/01/01 00:38:30;;;;;;;33.78;22.27;;;3.50;99.90;;;;;;5030881;28;20176;-79
2021/01/01 00:40:56;;;;;;;32.50;21.10;;;3.60;99.90;;;;;;5012519;28;20209;-79
2021/01/01 00:43:22;;;;;;;39.63;23.47;;;3.50;99.90;;;;;;5031371;28;20930;-78
2021/01/01 00:45:47;;;;;;;32.43;20.97;;;3.50;99.90;;;;;;5012470;28;20567;-79
2021/01/01 00:48:13;;;;;;;35.63;22.53;;;3.50;99.90;;;;;;5030914;28;20153;-78
2021/01/01 00:50:39;;;;;;;34.67;22.57;;;3.50;99.90;;;;;;5030997;28;20165;-79
2021/01/01 00:53:04;;;;;;;33.97;23.03;;;3.50;99.90;;;;;;5013808;28;20199;-78
2021/01/01 00:55:30;;;;;;;36.23;24.90;;;3.60;99.90;;;;;;5030673;28;20176;-78
2021/01/01 00:57:56;;;;;;;39.07;24.50;;;3.60;99.90;;;;;;5014014;28;20162;-78
2021/01/01 01:00:22;;;;;;;36.00;24.17;;;3.60;99.90;;;;;;5013843;28;20165;-78
2021/01/01 01:02:47;;;;;;;34.93;23.73;;;3.50;99.90;;;;;;5030931;28;20483;-78
2021/01/01 01:05:13;;;;;;;37.43;24.77;;;3.60;99.90;;;;;;5031515;28;20909;-78
2021/01/01 01:07:39;;;;;;;41.78;24.95;;;3.50;99.90;;;;;;5030263;28;20209;-78
2021/01/01 01:10:05;;;;;;;42.80;26.33;;;3.50;99.90;;;;;;5031657;28;20242;-79
2021/01/01 01:12:31;;;;;;;45.70;26.23;;;3.60;99.90;;;;;;5030662;28;20205;-78
2021/01/01 01:14:57;;;;;;;41.80;26.37;;;3.70;99.90;;;;;;5031057;28;20176;-79
2021/01/01 01:17:23;;;;;;;44.93;25.53;;;3.70;99.90;;;;;;5029908;28;21053;-79
2021/01/01 01:19:49;;;;;;;48.78;26.42;;;3.70;99.90;;;;;;5030252;28;20470;-79
2021/01/01 01:22:18;;;;;;;46.63;26.50;;;3.70;99.90;;;;;;5033333;28;20233;-79
2021/01/01 01:24:43;;;;;;;48.20;24.95;;;3.70;99.90;;;;;;5034148;28;20259;-79
2021/01/01 01:27:09;;;;;;;50.87;24.60;;;3.70;99.90;;;;;;5033971;28;20419;-77
2021/01/01 01:29:35;;;;;;;45.70;24.33;;;3.70;99.90;;;;;;5017165;28;20188;-78
2021/01/01 01:32:00;;;;;;;43.57;24.23;;;3.70;99.90;;;;;;5033615;28;20212;-79
2021/01/01 01:34:26;;;;;;;46.43;24.97;;;3.60;99.90;;;;;;5034521;28;20495;-79
2021/01/01 01:36:52;;;;;;;46.03;26.17;;;3.60;99.90;;;;;;5034275;28;20715;-78
2021/01/01 01:39:17;;;;;;;48.40;28.27;;;3.60;99.90;;;;;;5017026;28;20543;-78
2021/01/01 01:41:43;;;;;;;45.77;26.37;;;3.50;99.90;;;;;;5023090;28;20298;-78
2021/01/01 01:44:09;;;;;;;47.23;27.70;;;3.50;99.90;;;;;;5020976;28;20263;-78
2021/01/01 01:46:45;;;;;;;42.43;27.10;;;3.50;99.90;;;;;;5033850;28;20224;-78
2021/01/01 01:49:14;;;;;;;49.08;27.30;;;3.50;99.90;;;;;;5025621;28;20267;-78
2021/01/01 01:51:44;;;;;;;48.00;29.33;;;3.50;99.90;;;;;;5033848;28;20304;-78
2021/01/01 01:54:11;;;;;;;39.22;25.83;;;3.50;99.90;;;;;;5016361;28;20193;-78
2021/01/01 01:56:38;;;;;;;44.70;26.70;;;3.50;99.90;;;;;;5033946;28;20217;-78
2021/01/01 01:59:04;;;;;;;48.42;28.92;;;3.40;99.90;;;;;;5034425;28;20658;-78
2021/01/01 02:01:30;;;;;;;48.83;27.38;;;3.40;99.90;;;;;;5017600;28;20689;-78
2021/01/01 02:03:55;;;;;;;46.72;27.05;;;3.40;99.90;;;;;;5034256;28;20200;-78
2021/01/01 02:06:21;;;;;;;41.27;24.47;;;3.40;99.90;;;;;;5025790;28;20209;-78
2021/01/01 02:08:53;;;;;;;42.90;26.60;;;3.50;99.90;;;;;;5034349;28;20252;-78
2021/01/01 02:11:20;;;;;;;44.95;25.33;;;3.50;99.90;;;;;;5018053;28;20206;-78
2021/01/01 02:13:54;;;;;;;36.20;24.00;;;3.50;99.90;;;;;;5033974;28;20194;-77
2021/01/01 02:16:25;;;;;;;38.40;25.00;;;3.50;99.90;;;;;;5018773;28;20223;-77
2021/01/01 02:18:51;;;;;;;42.45;23.98;;;3.40;99.90;;;;;;5034184;28;20173;-76
2021/01/01 02:21:17;;;;;;;40.07;24.60;;;3.50;99.90;;;;;;5015692;28;20288;-78
2021/01/01 02:23:44;;;;;;;41.67;24.00;;;3.50;99.90;;;;;;5033313;28;20224;-77
2021/01/01 02:26:10;;;;;;;35.53;22.60;;;3.50;99.90;;;;;;5015292;28;20216;-77
2021/01/01 02:28:36;;;;;;;37.20;22.20;;;3.50;99.90;;;;;;5033129;28;20550;-78
2021/01/01 02:31:02;;;;;;;35.73;23.50;;;3.50;99.90;;;;;;5033261;28;20466;-78
2021/01/01 02:33:27;;;;;;;36.23;22.43;;;3.40;99.90;;;;;;5014700;28;20287;-78
2021/01/01 02:35:53;;;;;;;33.73;21.10;;;3.40;99.90;;;;;;5015598;28;20565;-78
2021/01/01 02:38:19;;;;;;;35.73;23.00;;;3.30;99.90;;;;;;5034056;28;20299;-78
2021/01/01 02:40:45;;;;;;;32.10;22.23;;;3.40;99.90;;;;;;5016862;28;20268;-78
2021/01/01 02:43:13;;;;;;;31.80;20.50;;;3.40;99.90;;;;;;5033356;28;20185;-78
2021/01/01 02:45:39;;;;;;;37.80;22.63;;;3.40;99.90;;;;;;5032901;28;20918;-78
2021/01/01 02:48:16;;;;;;;33.77;21.83;;;3.40;99.90;;;;;;5015736;28;20328;-79
2021/01/01 02:50:43;;;;;;;32.17;20.58;;;3.40;99.90;;;;;;5032012;28;20209;-79
2021/01/01 02:53:09;;;;;;;31.38;19.65;;;3.40;99.90;;;;;;5018585;28;20190;-79
2021/01/01 02:55:35;;;;;;;34.80;21.98;;;3.40;99.90;;;;;;5029845;28;20197;-79
2021/01/01 02:58:01;;;;;;;35.53;21.30;;;3.40;99.90;;;;;;5033165;28;20222;-78
2021/01/01 03:00:30;;;;;;;35.63;21.92;;;3.50;99.90;;;;;;5032896;28;20168;-78
2021/01/01 03:02:56;;;;;;;35.25;22.00;;;3.50;99.90;;;;;;5014895;28;20197;-78
2021/01/01 03:05:21;;;;;;;37.30;21.77;;;3.50;99.90;;;;;;5031423;28;20560;-79
2021/01/01 03:07:47;;;;;;;34.77;21.40;;;3.50;99.90;;;;;;5032777;28;20466;-79
2021/01/01 03:10:13;;;;;;;41.93;25.50;;;3.50;99.90;;;;;;5032252;28;20424;-79
2021/01/01 03:12:39;;;;;;;39.03;23.67;;;3.50;99.90;;;;;;5031868;28;20542;-78
2021/01/01 03:15:06;;;;;;;34.00;23.10;;;3.50;99.90;;;;;;5014999;28;20471;-78
2021/01/01 03:17:33;;;;;;;31.85;22.48;;;3.60;99.90;;;;;;5014287;28;20448;-78
2021/01/01 03:19:59;;;;;;;37.63;23.45;;;3.60;99.90;;;;;;5032597;28;20655;-79
2021/01/01 03:22:24;;;;;;;35.33;22.33;;;3.60;99.90;;;;;;5030925;28;20209;-79
2021/01/01 03:24:50;;;;;;;35.87;23.53;;;3.60;99.90;;;;;;5014407;28;20412;-78
2021/01/01 03:27:16;;;;;;;35.60;23.60;;;3.60;99.90;;;;;;5014239;28;20611;-78
2021/01/01 03:29:41;;;;;;;31.20;22.20;;;3.60;99.90;;;;;;5032247;28;20793;-79
2021/01/01 03:32:07;;;;;;;38.53;24.30;;;3.70;99.90;;;;;;5031535;28;20690;-78
2021/01/01 03:34:33;;;;;;;36.50;22.60;;;3.70;99.90;;;;;;5014586;28;20185;-79
2021/01/01 03:36:58;;;;;;;32.77;20.37;;;3.60;99.90;;;;;;5024826;28;20228;-78
2021/01/01 03:39:24;;;;;;;35.93;21.43;;;3.50;99.90;;;;;;5032133;28;20189;-78
2021/01/01 03:41:50;;;;;;;38.27;23.57;;;3.50;99.90;;;;;;5023990;28;20660;-79
2021/01/01 03:44:16;;;;;;;35.03;21.70;;;3.50;99.90;;;;;;5013831;28;20271;-77
2021/01/01 03:46:41;;;;;;;35.80;23.83;;;3.50;99.90;;;;;;5014030;28;20460;-77
2021/01/01 03:49:07;;;;;;;32.40;21.43;;;3.60;99.90;;;;;;5032023;28;20255;-78
2021/01/01 03:51:33;;;;;;;33.95;23.00;;;3.60;99.90;;;;;;5031096;28;20217;-78
2021/01/01 03:53:59;;;;;;;35.93;22.07;;;3.50;99.90;;;;;;5031895;28;20196;-78
2021/01/01 03:56:24;;;;;;;40.23;24.83;;;3.50;99.90;;;;;;5013729;28;20216;-77
2021/01/01 03:58:50;;;;;;;36.90;23.90;;;3.50;99.90;;;;;;5031825;28;20243;-79
2021/01/01 04:01:16;;;;;;;41.67;26.10;;;3.50;99.90;;;;;;5031081;28;20249;-79
2021/01/01 04:03:42;;;;;;;42.00;24.45;;;3.50;99.90;;;;;;5031303;28;20639;-79
2021/01/01 04:06:08;;;;;;;41.92;24.80;;;3.50;99.90;;;;;;5016837;28;20216;-78
2021/01/01 04:08:34;;;;;;;34.47;24.10;;;3.50;99.90;;;;;;5031746;28;20544;-77
2021/01/01 04:11:00;;;;;;;34.23;23.90;;;3.60;99.90;;;;;;5031072;28;20444;-77
2021/01/01 04:13:25;;;;;;;42.63;26.27;;;3.60;99.90;;;;;;5031533;28;20610;-78
2021/01/01 04:15:51;;;;;;;39.57;25.57;;;3.60;99.90;;;;;;5030784;28;20462;-78
2021/01/01 04:18:17;;;;;;;42.10;26.13;;;3.50;99.90;;;;;;5031599;28;20204;-77
2021/01/01 04:20:43;;;;;;;43.00;24.03;;;3.60;99.90;;;;;;5030882;28;20760;-77
2021/01/01 04:23:09;;;;;;;43.75;26.02;;;3.60;99.90;;;;;;5031651;28;20292;-77
2021/01/01 04:25:35;;;;;;;43.60;26.70;;;3.60;99.90;;;;;;5030305;28;20257;-77
2021/01/01 04:28:00;;;;;;;38.93;26.47;;;3.50;99.90;;;;;;5031286;28;20415;-78
2021/01/01 04:30:26;;;;;;;41.93;25.43;;;3.50;99.90;;;;;;5030937;28;20188;-78
2021/01/01 04:32:52;;;;;;;36.80;23.87;;;3.50;99.90;;;;;;5033764;28;20192;-77
2021/01/01 04:35:17;;;;;;;41.20;26.20;;;3.50;99.90;;;;;;5031259;28;20652;-77
2021/01/01 04:37:43;;;;;;;43.27;27.77;;;3.50;99.90;;;;;;5030217;28;20303;-77
2021/01/01 04:40:09;;;;;;;40.37;25.90;;;3.50;99.90;;;;;;5030785;28;20165;-78
2021/01/01 04:42:35;;;;;;;42.43;26.00;;;3.50;99.90;;;;;;5030780;28;20213;-79
2021/01/01 04:45:05;;;;;;;49.53;29.95;;;3.50;99.90;;;;;;5031088;28;20470;-78
2021/01/01 04:47:32;;;;;;;39.90;25.27;;;3.50;99.90;;;;;;5013090;28;20296;-78
2021/01/01 04:50:00;;;;;;;46.30;27.75;;;3.50;99.90;;;;;;5031434;28;20214;-78
2021/01/01 04:52:31;;;;;;;43.45;26.90;;;3.60;99.90;;;;;;5030722;28;20224;-79
2021/01/01 04:55:00;;;;;;;48.00;27.75;;;3.60;99.90;;;;;;5031315;28;20183;-77
2021/01/01 04:57:29;;;;;;;43.47;28.40;;;3.50;99.90;;;;;;5016401;28;20213;-77
2021/01/01 04:59:55;;;;;;;43.67;27.10;;;3.50;99.90;;;;;;5035402;28;20165;-78
2021/01/01 05:02:21;;;;;;;40.70;26.67;;;3.60;99.90;;;;;;5016792;28;20231;-78
2021/01/01 05:04:48;;;;;;;40.05;27.45;;;3.60;99.90;;;;;;5034831;28;20414;-78
2021/01/01 05:07:20;;;;;;;48.35;28.45;;;3.50;99.90;;;;;;5033916;28;20232;-78
2021/01/01 05:09:47;;;;;;;42.83;28.15;;;3.50;99.90;;;;;;5015759;28;20165;-79
2021/01/01 05:12:13;;;;;;;43.45;26.52;;;3.50;99.90;;;;;;5014776;28;20275;-78
2021/01/01 05:14:40;;;;;;;39.33;26.60;;;3.60;99.90;;;;;;4997954;28;20265;-78
2021/01/01 05:17:06;;;;;;;43.22;28.15;;;3.60;99.90;;;;;;5022043;28;20213;-78
2021/01/01 05:19:42;;;;;;;37.50;25.70;;;3.50;99.90;;;;;;5024438;28;20173;-78
2021/01/01 05:22:11;;;;;;;38.38;22.05;;;3.50;99.90;;;;;;5034485;28;20451;-78
2021/01/01 05:24:41;;;;;;;33.83;21.17;;;3.40;99.90;;;;;;5016845;28;20166;-77
2021/01/01 05:27:15;;;;;;;36.10;21.80;;;3.50;99.90;;;;;;5022600;28;20210;-77
2021/01/01 05:29:50;;;;;;;33.92;21.77;;;3.50;99.90;;;;;;5022742;28;20195;-77
2021/01/01 05:32:20;;;;;;;35.97;23.00;;;3.50;99.90;;;;;;5011677;28;20220;-77
2021/01/01 05:34:46;;;;;;;34.95;21.50;;;3.50;99.90;;;;;;5016664;28;20694;-77
2021/01/01 05:37:25;;;;;;;34.97;23.33;;;3.50;99.90;;;;;;5034118;28;20217;-77
2021/01/01 05:40:08;;;;;;;38.15;21.98;;;3.40;99.90;;;;;;5034369;28;20165;-78
2021/01/01 05:42:38;;;;;;;36.83;22.77;;;3.40;99.90;;;;;;5015987;28;20209;-78
2021/01/01 05:45:30;;;;;;;33.08;22.90;;;3.30;99.90;;;;;;5033909;28;20165;-78
2021/01/01 05:48:06;;;;;;;32.53;22.08;;;3.30;99.90;;;;;;5028841;28;20205;-78
2021/01/01 05:50:33;;;;;;;35.60;22.85;;;3.20;99.90;;;;;;5032643;28;20181;-77
2021/01/01 05:53:16;;;;;;;29.90;20.70;;;3.20;99.90;;;;;;4996998;28;20663;-78
2021/01/01 05:55:44;;;;;;;37.80;21.33;;;3.30;99.90;;;;;;5023999;28;20452;-77
2021/01/01 05:58:23;;;;;;;28.83;18.63;;;3.30;99.90;;;;;;5033725;28;20515;-77
2021/01/01 06:00:53;;;;;;;28.92;18.67;;;3.30;99.90;;;;;;5015655;28;20201;-78
2021/01/01 06:03:33;;;;;;;27.92;20.92;;;3.40;99.90;;;;;;5033161;28;20749;-77
2021/01/01 06:06:04;;;;;;;27.23;18.52;;;3.40;99.90;;;;;;5026022;28;20209;-78
2021/01/01 06:08:30;;;;;;;30.50;18.58;;;3.30;99.90;;;;;;5033210;28;20170;-78
2021/01/01 06:11:01;;;;;;;25.75;16.02;;;3.30;99.90;;;;;;5032765;28;20213;-78
2021/01/01 06:13:34;;;;;;;25.67;17.60;;;3.30;99.90;;;;;;5032900;28;20644;-78
2021/01/01 06:16:01;;;;;;;23.52;16.75;;;3.30;99.90;;;;;;5032837;28;20209;-78
2021/01/01 06:18:31;;;;;;;25.75;17.85;;;3.20;99.90;;;;;;5033260;28;20166;-79
2021/01/01 06:21:02;;;;;;;29.83;17.80;;;3.20;99.90;;;;;;5032656;28;20212;-78
2021/01/01 06:23:32;;;;;;;25.13;16.80;;;3.20;99.90;;;;;;5015766;28;20521;-77
2021/01/01 06:26:00;;;;;;;22.25;15.68;;;3.20;99.90;;;;;;5020515;28;20198;-78
2021/01/01 06:28:27;;;;;;;23.58;17.65;;;3.20;99.90;;;;;;5021542;28;20165;-78
2021/01/01 06:30:58;;;;;;;21.40;15.45;;;3.20;99.90;;;;;;5034549;28;20224;-78
2021/01/01 06:33:24;;;;;;;24.90;17.42;;;3.20;99.90;;;;;;5032410;28;20195;-78
2021/01/01 06:35:51;;;;;;;25.77;16.67;;;3.20;99.90;;;;;;5014227;28;20198;-78
2021/01/01 06:38:36;;;;;;;24.60;16.60;;;3.20;99.90;;;;;;5032456;28;20694;-77
2021/01/01 06:41:05;;;;;;;23.73;15.95;;;3.20;99.90;;;;;;5008400;28;20620;-78
2021/01/01 06:43:52;;;;;;;24.58;15.85;;;3.20;99.90;;;;;;5014930;28;20587;-77
2021/01/01 06:46:39;;;;;;;23.83;16.20;;;3.20;99.90;;;;;;5031756;28;20228;-77
2021/01/01 06:49:09;;;;;;;26.10;17.35;;;3.20;99.90;;;;;;5026887;28;20583;-77
2021/01/01 06:51:35;;;;;;;21.88;15.60;;;3.20;99.90;;;;;;5031083;28;20217;-77
2021/01/01 06:54:13;;;;;;;22.00;15.20;;;3.20;99.90;;;;;;5032397;28;20707;-78
2021/01/01 06:56:43;;;;;;;24.80;16.20;;;3.20;99.90;;;;;;5031617;28;20946;-77
2021/01/01 06:59:10;;;;;;;25.20;16.92;;;3.20;99.90;;;;;;5032701;28;20220;-78
2021/01/01 07:01:41;;;;;;;21.83;14.95;;;3.20;99.90;;;;;;5031687;28;20579;-77
2021/01/01 07:04:07;;;;;;;24.85;17.08;;;3.30;99.90;;;;;;5032089;28;20220;-78
2021/01/01 07:06:34;;;;;;;24.63;16.37;;;3.30;99.90;;;;;;5013259;28;20248;-78
2021/01/01 07:09:01;;;;;;;23.40;15.52;;;3.40;99.90;;;;;;5031417;28;20427;-78
2021/01/01 07:11:29;;;;;;;21.88;13.50;;;3.40;99.90;;;;;;5031279;28;20205;-79
2021/01/01 07:13:56;;;;;;;20.85;15.25;;;3.30;99.90;;;;;;5031457;28;20199;-78
2021/01/01 07:16:30;;;;;;;20.33;14.75;;;3.30;99.90;;;;;;5031398;28;20307;-77
2021/01/01 07:18:56;;;;;;;24.33;15.20;;;3.30;99.90;;;;;;5016462;28;20169;-77
2021/01/01 07:21:21;;;;;;;23.43;16.33;;;3.30;99.90;;;;;;5013698;28;20618;-77
2021/01/01 07:23:48;;;;;;;22.40;13.80;;;3.30;99.90;;;;;;5032209;28;20189;-79
2021/01/01 07:26:15;;;;;;;22.05;13.98;;;3.30;99.90;;;;;;5031004;28;20205;-78
2021/01/01 07:28:45;;;;;;;26.08;16.10;;;3.20;99.90;;;;;;5014028;28;20219;-79
2021/01/01 07:31:19;;;;;;;27.50;14.82;;;3.20;99.90;;;;;;5030779;28;20667;-78
2021/01/01 07:33:45;;;;;;;25.33;14.55;;;3.20;99.90;;;;;;5013829;28;20226;-78
2021/01/01 07:36:12;;;;;;;23.23;14.30;;;3.30;99.90;;;;;;5012976;28;20209;-78
2021/01/01 07:38:40;;;;;;;24.25;14.88;;;3.30;99.90;;;;;;5005713;28;20170;-77
2021/01/01 07:41:06;;;;;;;24.05;15.77;;;3.20;99.90;;;;;;5017272;28;20210;-77
2021/01/01 07:43:32;;;;;;;21.00;14.10;;;3.30;99.90;;;;;;5012934;28;20592;-78
2021/01/01 07:46:00;;;;;;;26.70;15.10;;;3.40;99.90;;;;;;5030889;28;20538;-78
2021/01/01 07:48:26;;;;;;;21.40;15.05;;;3.40;99.90;;;;;;5022818;28;20640;-79
2021/01/01 07:50:57;;;;;;;18.80;14.47;;;3.30;99.90;;;;;;5014913;28;20252;-78
2021/01/01 07:53:23;;;;;;;20.63;14.10;;;3.20;99.90;;;;;;5013245;28;20447;-78
2021/01/01 07:55:49;;;;;;;19.63;14.20;;;3.20;99.90;;;;;;5019728;28;20608;-77
2021/01/01 07:58:16;;;;;;;22.50;14.70;;;3.20;99.90;;;;;;5022694;28;20201;-78
2021/01/01 08:00:45;;;;;;;21.83;14.80;;;3.20;99.90;;;;;;5026759;28;20227;-77
2021/01/01 08:03:14;;;;;;;24.73;13.93;;;3.20;99.90;;;;;;5018963;28;20185;-78
2021/01/01 08:05:44;;;;;;;22.50;15.07;;;3.10;99.90;;;;;;5020444;28;20663;-78
2021/01/01 08:08:20;;;;;;;22.73;13.98;;;3.20;99.90;;;;;;5004599;28;20173;-78
2021/01/01 08:10:47;;;;;;;20.75;13.77;;;3.10;99.90;;;;;;5022229;28;20208;-78
2021/01/01 08:13:17;;;;;;;19.70;14.40;;;3.10;99.90;;;;;;5016499;28;20285;-77
2021/01/01 08:15:43;;;;;;;22.20;15.38;;;3.10;99.90;;;;;;5011679;28;20212;-77
2021/01/01 08:18:09;;;;;;;18.53;14.63;;;3.10;99.90;;;;;;5031341;28;20205;-78
2021/01/01 08:20:35;;;;;;;19.92;13.75;;;3.00;99.90;;;;;;5029947;28;20898;-78
2021/01/01 08:23:07;;;;;;;23.30;14.83;;;3.00;99.90;;;;;;5030632;28;20188;-78
2021/01/01 08:25:34;;;;;;;21.48;14.50;;;3.00;99.90;;;;;;5011693;28;20412;-78
2021/01/01 08:28:02;;;;;;;22.83;15.23;;;3.10;99.90;;;;;;5031174;28;20169;-78
2021/01/01 08:30:28;;;;;;;26.52;17.30;;;3.10;99.90;;;;;;5029287;28;20264;-79
2021/01/01 08:32:56;;;;;;;21.47;13.30;;;3.10;99.90;;;;;;5030189;28;20196;-78
2021/01/01 08:35:21;;;;;;;26.80;13.90;;;3.20;99.90;;;;;;5030220;28;20211;-78
2021/01/01 08:37:47;;;;;;;26.30;17.13;;;3.20;99.90;;;;;;5030267;28;20228;-78
2021/01/01 08:40:13;;;;;;;24.87;15.43;;;3.20;99.90;;;;;;5030660;28;20850;-78
2021/01/01 08:42:40;;;;;;;26.35;15.57;;;3.10;99.90;;;;;;5029703;28;20235;-78
2021/01/01 08:45:08;;;;;;;20.65;15.70;;;3.10;99.90;;;;;;5012421;28;20169;-78
2021/01/01 08:47:42;;;;;;;23.73;15.30;;;3.20;99.90;;;;;;5012319;28;20209;-79
2021/01/01 08:50:21;;;;;;;26.70;16.58;;;3.20;99.90;;;;;;5011049;28;20273;-77
2021/01/01 08:52:48;;;;;;;22.30;14.55;;;3.10;99.90;;;;;;5030234;28;20232;-77
2021/01/01 08:55:14;;;;;;;27.27;17.45;;;3.20;99.90;;;;;;5030583;28;20208;-78
2021/01/01 08:57:40;;;;;;;24.30;18.33;;;3.20;99.90;;;;;;5029955;28;20219;-78
2021/01/01 09:00:07;;;;;;;25.47;16.80;;;3.30;99.90;;;;;;5023879;28;20583;-78
2021/01/01 09:02:34;;;;;;;26.00;18.15;;;3.30;99.90;;;;;;5029631;28;20459;-79
2021/01/01 09:05:00;;;;;;;23.52;16.92;;;3.20;99.90;;;;;;5030381;28;20177;-78
2021/01/01 09:07:26;;;;;;;26.73;17.17;;;3.10;99.90;;;;;;5005570;28;20228;-78
2021/01/01 09:09:52;;;;;;;30.70;17.63;;;3.10;99.90;;;;;;5030220;28;20173;-78
2021/01/01 09:12:22;;;;;;;27.53;16.83;;;3.20;99.90;;;;;;5014127;28;20468;-78
2021/01/01 09:14:55;;;;;;;26.75;15.23;;;3.20;99.90;;;;;;5029943;28;20624;-78
2021/01/01 09:17:25;;;;;;;25.00;17.80;;;3.20;99.90;;;;;;5010807;28;20232;-78
2021/01/01 09:20:09;;;;;;;24.15;16.90;;;3.10;99.90;;;;;;5029666;28;20161;-79
2021/01/01 09:22:37;;;;;;;29.70;17.05;;;3.10;99.90;;;;;;5011831;28;20576;-78
2021/01/01 09:25:25;;;;;;;28.40;18.42;;;3.10;99.90;;;;;;5030392;28;20212;-78
2021/01/01 09:27:52;;;;;;;23.35;17.70;;;3.20;99.90;;;;;;5010474;28;20645;-77
2021/01/01 09:30:29;;;;;;;28.25;17.13;;;3.20;99.90;;;;;;5026468;28;20644;-77
2021/01/01 09:32:56;;;;;;;29.88;17.55;;;3.20;99.90;;;;;;4996986;28;20739;-78
2021/01/01 09:35:22;;;;;;;32.40;18.58;;;3.30;99.90;;;;;;5029200;28;20174;-78
2021/01/01 09:37:53;;;;;;;33.75;19.48;;;3.30;99.90;;;;;;5029406;28;20248;-77
2021/01/01 09:40:21;;;;;;;32.45;18.38;;;3.40;99.90;;;;;;5012639;28;20610;-78
2021/01/01 09:42:47;;;;;;;32.85;19.98;;;3.40;99.90;;;;;;5015193;28;20204;-78
2021/01/01 09:45:13;;;;;;;32.50;20.48;;;3.40;99.90;;;;;;5027096;28;20506;-78
2021/01/01 09:47:39;;;;;;;30.67;19.90;;;3.50;99.90;;;;;;4996063;28;20213;-78
2021/01/01 09:50:07;;;;;;;39.20;21.23;;;3.60;99.90;;;;;;5003808;28;20184;-77
2021/01/01 09:52:33;;;;;;;31.10;20.33;;;3.60;99.90;;;;;;4996922;28;20217;-77
2021/01/01 09:54:59;;;;;;;30.02;19.70;;;3.60;99.90;;;;;;5033487;28;20169;-78
2021/01/01 09:57:25;;;;;;;32.10;20.60;;;3.70;99.90;;;;;;5014912;28;20567;-78
2021/01/01 09:59:51;;;;;;;37.10;22.37;;;3.80;99.90;;;;;;5015214;28;20169;-78
2021/01/01 10:02:16;;;;;;;35.07;22.40;;;3.70;99.90;;;;;;5032715;28;20464;-79
2021/01/01 10:04:42;;;;;;;33.57;22.50;;;3.80;99.90;;;;;;5033118;28;20416;-78
2021/01/01 10:07:08;;;;;;;40.57;22.30;;;3.80;99.90;;;;;;5014861;28;20220;-77
2021/01/01 10:09:33;;;;;;;29.77;19.77;;;3.90;99.90;;;;;;5033219;28;20656;-77
2021/01/01 10:12:05;;;;;;;32.50;20.83;;;4.00;99.90;;;;;;5032465;28;20563;-77
2021/01/01 10:14:32;;;;;;;28.27;19.95;;;4.00;99.90;;;;;;5034517;28;20539;-78
2021/01/01 10:16:58;;;;;;;32.03;20.00;;;4.00;99.90;;;;;;5035534;28;20220;-78
2021/01/01 10:19:24;;;;;;;31.33;20.38;;;4.00;99.90;;;;;;5033143;28;20161;-77
2021/01/01 10:21:49;;;;;;;28.20;19.63;;;4.10;99.90;;;;;;5033037;28;20216;-77
2021/01/01 10:24:15;;;;;;;33.43;19.33;;;4.10;99.90;;;;;;5034835;28;20197;-78
2021/01/01 10:26:50;;;;;;;31.50;20.90;;;4.10;99.90;;;;;;5043758;28;20205;-78
2021/01/01 10:29:16;;;;;;;34.00;19.70;;;4.30;99.90;;;;;;5033191;28;20192;-77
2021/01/01 10:31:43;;;;;;;35.17;20.13;;;4.30;99.90;;;;;;5033342;28;20623;-77
2021/01/01 10:34:09;;;;;;;33.63;19.30;;;4.30;99.90;;;;;;5033087;28;20552;-77
2021/01/01 10:36:36;;;;;;;31.10;19.83;;;4.30;99.90;;;;;;5032814;28;20591;-78
2021/01/01 10:39:02;;;;;;;29.42;19.15;;;4.30;99.90;;;;;;5015334;28;20173;-77
2021/01/01 10:41:27;;;;;;;29.40;19.00;;;4.40;99.90;;;;;;5031962;28;20706;-77
2021/01/01 10:43:53;;;;;;;29.53;18.97;;;4.40;99.90;;;;;;5032282;28;20946;-78
2021/01/01 10:46:20;;;;;;;31.00;21.20;;;4.40;99.90;;;;;;5032352;28;20279;-77
2021/01/01 10:48:46;;;;;;;33.15;21.00;;;4.40;99.90;;;;;;5014058;28;20173;-77
2021/01/01 10:51:19;;;;;;;30.50;20.43;;;4.50;99.90;;;;;;5027764;28;20294;-78
2021/01/01 10:53:45;;;;;;;31.42;19.83;;;4.50;99.90;;;;;;5012674;28;20197;-77
2021/01/01 10:56:10;;;;;;;31.87;21.73;;;4.60;99.90;;;;;;5030879;28;20702;-77
2021/01/01 10:58:36;;;;;;;35.53;20.40;;;4.60;99.90;;;;;;5014805;28;20604;-77
2021/01/01 11:01:02;;;;;;;30.10;19.50;;;4.60;99.90;;;;;;5013542;28;20215;-78
2021/01/01 11:03:27;;;;;;;30.30;20.13;;;4.70;99.90;;;;;;5031794;28;20189;-77
2021/01/01 11:05:53;;;;;;;31.13;20.20;;;4.70;99.90;;;;;;5031502;28;20571;-77
2021/01/01 11:08:18;;;;;;;33.80;21.40;;;4.70;99.90;;;;;;5032216;28;20671;-77
2021/01/01 11:10:48;;;;;;;34.50;20.90;;;4.60;99.90;;;;;;5031296;28;20705;-77
2021/01/01 11:13:13;;;;;;;30.35;19.70;;;4.60;99.90;;;;;;5031828;28;20193;-77
2021/01/01 12:20:38;;;;;;;32.42;18.92;;;4.60;99.90;;;;;;5021707;28;20228;-76
2021/01/01 12:25:37;;;;;;;30.75;20.17;;;4.60;99.90;;;;;;5031943;28;20561;-77
2021/01/01 12:28:04;;;;;;;33.17;19.80;;;4.70;99.90;;;;;;5033766;28;20699;-76
2021/01/01 12:30:32;;;;;;;31.98;18.90;;;4.70;99.90;;;;;;5031868;28;20185;-76
2021/01/01 12:32:59;;;;;;;30.67;18.98;;;4.80;99.90;;;;;;5030076;28;20247;-77
2021/01/01 12:35:25;;;;;;;33.85;18.67;;;4.80;99.90;;;;;;5029530;28;20264;-77
2021/01/01 12:38:03;;;;;;;27.75;18.45;;;4.80;99.90;;;;;;5030067;28;20672;-76
2021/01/01 12:40:30;;;;;;;30.95;19.48;;;4.80;99.90;;;;;;5031525;28;20173;-77
2021/01/01 12:42:56;;;;;;;30.10;18.05;;;4.70;99.90;;;;;;5031203;28;20188;-76
2021/01/01 12:45:22;;;;;;;28.37;18.70;;;4.70;99.90;;;;;;5031821;28;20215;-77
2021/01/01 12:47:50;;;;;;;28.20;18.35;;;4.70;99.90;;;;;;5026384;28;20530;-76
2021/01/01 12:50:16;;;;;;;31.45;18.08;;;4.70;99.90;;;;;;5034108;28;20215;-77
2021/01/01 12:52:54;;;;;;;28.53;18.37;;;4.70;99.90;;;;;;5014881;28;20213;-76
2021/01/01 12:55:20;;;;;;;30.50;18.40;;;4.70;99.90;;;;;;5033381;28;20173;-77
2021/01/01 12:57:45;;;;;;;29.17;16.97;;;4.70;99.90;;;;;;5032248;28;20213;-76
2021/01/01 13:00:12;;;;;;;30.43;17.20;;;4.90;99.90;;;;;;5031950;28;20423;-77
2021/01/01 13:02:38;;;;;;;29.73;19.02;;;5.20;99.90;;;;;;5029752;28;20236;-77
2021/01/01 13:05:05;;;;;;;31.67;19.00;;;5.40;99.90;;;;;;5031583;28;20223;-77
2021/01/01 13:07:31;;;;;;;28.75;17.00;;;5.50;99.90;;;;;;5036157;23;20233;-77
2021/01/01 13:09:58;;;;;;;28.83;18.80;;;5.50;99.90;;;;;;5073325;28;20160;-76
2021/01/01 13:12:24;;;;;;;25.15;17.85;;;5.50;99.90;;;;;;5055341;28;20222;-77
2021/01/01 13:14:50;;;;;;;29.50;19.40;;;5.50;99.90;;;;;;5073947;28;20164;-77
2021/01/01 13:17:16;;;;;;;29.87;18.80;;;5.50;99.90;;;;;;5073786;28;20215;-76
2021/01/01 13:19:41;;;;;;;27.57;18.60;;;5.50;99.90;;;;;;5076491;28;20178;-77
2021/01/01 13:22:07;;;;;;;25.63;18.07;;;5.50;99.90;;;;;;5057615;28;20438;-77
2021/01/01 13:24:32;;;;;;;30.77;18.10;;;5.50;99.90;;;;;;5055916;28;20164;-77
2021/01/01 13:26:58;;;;;;;32.57;18.73;;;5.50;99.90;;;;;;5056430;28;20215;-77
2021/01/01 13:29:24;;;;;;;25.77;15.30;;;5.70;99.90;;;;;;5075025;28;20195;-77
2021/01/01 13:31:49;;;;;;;25.00;16.90;;;5.70;99.90;;;;;;5075699;28;20304;-76
2021/01/01 13:34:15;;;;;;;32.70;17.43;;;5.70;99.90;;;;;;5059251;28;20194;-76
2021/01/01 13:36:42;;;;;;;27.87;16.30;;;5.60;99.90;;;;;;5057813;28;20314;-77
2021/01/01 13:39:09;;;;;;;30.52;18.00;;;5.80;99.90;;;;;;5076301;28;20163;-77
2021/01/01 13:41:38;;;;;;;29.08;19.13;;;5.90;99.90;;;;;;5074539;28;20294;-77
2021/01/01 13:44:05;;;;;;;25.45;15.25;;;5.90;99.90;;;;;;5073868;28;20542;-77
2021/01/01 13:46:33;;;;;;;20.95;15.35;;;5.90;99.90;;;;;;5074717;28;20853;-76